createdAt,value
2018-09-14T00:02:14.170Z,7.20
2018-09-14T00:04:42.640Z,9.80
2018-09-14T00:07:11.127Z,8.50
2018-09-14T00:09:39.603Z,9.30
2018-09-14T00:12:08.117Z,5.57
2018-09-14T00:14:36.579Z,5.93
2018-09-14T00:17:05.435Z,7.33
2018-09-14T00:19:33.949Z,9.27
2018-09-14T00:22:02.728Z,8.57
2018-09-14T00:24:31.211Z,9.10
2018-09-14T00:27:00.051Z,7.67
2018-09-14T00:29:28.511Z,7.13
2018-09-14T00:31:57.022Z,7.07
2018-09-14T00:34:25.488Z,6.97
2018-09-14T00:36:53.978Z,6.93
2018-09-14T00:39:22.477Z,8.47
2018-09-14T00:41:50.954Z,6.83
2018-09-14T00:44:19.425Z,7.57
2018-09-14T00:46:47.912Z,7.23
2018-09-14T00:49:16.363Z,8.10
2018-09-14T00:51:44.858Z,7.70
2018-09-14T00:54:13.418Z,7.30
2018-09-14T00:56:41.904Z,7.33
2018-09-14T00:59:10.401Z,7.40
2018-09-14T01:01:38.894Z,7.07
2018-09-14T01:04:07.357Z,9.17
2018-09-14T01:06:35.831Z,10.80
2018-09-14T01:09:07.223Z,9.23
2018-09-14T01:11:35.771Z,11.27
2018-09-14T01:14:04.239Z,9.60
2018-09-14T01:16:32.699Z,8.67
2018-09-14T01:19:01.186Z,9.37
2018-09-14T01:21:29.695Z,11.00
2018-09-14T01:23:58.150Z,11.53
2018-09-14T01:26:26.633Z,10.77
2018-09-14T01:28:55.095Z,9.60
2018-09-14T01:31:23.674Z,12.00
2018-09-14T01:33:52.162Z,10.90
2018-09-14T01:36:20.670Z,10.77
2018-09-14T01:38:49.217Z,8.77
2018-09-14T01:41:17.737Z,8.80
2018-09-14T01:43:46.181Z,12.07
2018-09-14T01:46:14.627Z,11.00
2018-09-14T01:48:43.074Z,10.93
2018-09-14T01:51:11.523Z,8.63
2018-09-14T01:53:39.974Z,8.03
2018-09-14T01:56:08.429Z,11.43
2018-09-14T01:58:36.877Z,10.90
2018-09-14T02:01:05.314Z,10.80
2018-09-14T02:03:33.741Z,11.23
2018-09-14T02:06:02.215Z,8.73
2018-09-14T02:08:30.645Z,8.23
2018-09-14T02:10:59.089Z,8.50
2018-09-14T02:13:27.501Z,11.60
2018-09-14T02:15:55.972Z,10.07
2018-09-14T02:18:24.402Z,8.80
2018-09-14T02:20:52.862Z,8.77
2018-09-14T02:23:21.313Z,8.40
2018-09-14T02:25:49.741Z,9.60
2018-09-14T02:28:18.190Z,9.90
2018-09-14T02:30:46.665Z,11.77
2018-09-14T02:33:15.086Z,12.83
2018-09-14T02:35:43.530Z,13.17
2018-09-14T02:38:11.958Z,11.23
2018-09-14T02:40:40.417Z,9.37
2018-09-14T02:43:08.898Z,7.00
2018-09-14T02:45:37.354Z,11.80
2018-09-14T02:48:05.853Z,9.70
2018-09-14T02:50:34.324Z,8.10
2018-09-14T02:53:02.784Z,9.60
2018-09-14T02:55:31.288Z,7.23
2018-09-14T02:57:59.744Z,12.00
2018-09-14T03:00:28.202Z,11.37
2018-09-14T03:02:56.649Z,10.37
2018-09-14T03:05:25.122Z,9.77
2018-09-14T03:07:53.572Z,11.60
2018-09-14T03:10:22.025Z,10.10
2018-09-14T03:12:50.494Z,7.97
2018-09-14T03:15:18.968Z,9.03
2018-09-14T03:17:47.413Z,7.90
2018-09-14T03:20:15.959Z,9.03
2018-09-14T03:22:44.666Z,11.20
2018-09-14T03:25:13.146Z,11.03
2018-09-14T03:27:41.915Z,11.33
2018-09-14T03:30:10.332Z,9.80
2018-09-14T03:32:38.780Z,9.50
2018-09-14T03:35:07.361Z,7.63
2018-09-14T03:37:35.895Z,8.40
2018-09-14T03:40:04.382Z,9.33
2018-09-14T03:42:32.861Z,9.30
2018-09-14T03:45:01.369Z,11.67
2018-09-14T03:47:29.809Z,13.13
2018-09-14T03:49:58.292Z,9.20
2018-09-14T03:52:26.723Z,11.53
2018-09-14T03:54:55.181Z,12.37
2018-09-14T03:57:23.672Z,12.37
2018-09-14T03:59:52.116Z,11.23
2018-09-14T04:02:21.395Z,12.93
2018-09-14T04:04:49.863Z,13.10
2018-09-14T04:07:18.296Z,11.73
2018-09-14T04:09:46.765Z,11.97
2018-09-14T04:12:15.277Z,9.97
2018-09-14T04:14:43.732Z,9.50
2018-09-14T04:17:12.340Z,9.40
2018-09-14T04:19:41.086Z,12.07
2018-09-14T04:22:09.538Z,10.67
2018-09-14T04:24:37.976Z,11.47
2018-09-14T04:27:06.432Z,8.77
2018-09-14T04:29:34.857Z,8.67
2018-09-14T04:32:03.304Z,7.87
2018-09-14T04:34:31.756Z,10.00
2018-09-14T04:37:00.212Z,8.17
2018-09-14T04:39:28.686Z,8.93
2018-09-14T04:41:57.127Z,10.63
2018-09-14T04:44:25.595Z,10.03
2018-09-14T04:46:54.036Z,10.27
2018-09-14T04:49:22.470Z,10.40
2018-09-14T04:51:50.927Z,9.57
2018-09-14T04:54:19.353Z,10.73
2018-09-14T04:56:47.815Z,8.13
2018-09-14T04:59:16.285Z,9.53
2018-09-14T05:01:44.732Z,8.40
2018-09-14T05:04:13.166Z,9.17
2018-09-14T05:06:41.566Z,8.40
2018-09-14T05:09:09.989Z,8.70
2018-09-14T05:11:38.423Z,9.37
2018-09-14T05:14:06.894Z,7.73
2018-09-14T05:16:35.330Z,7.60
2018-09-14T05:19:03.850Z,7.73
2018-09-14T05:21:32.262Z,9.50
2018-09-14T05:24:00.850Z,7.13
2018-09-14T05:26:29.245Z,9.67
2018-09-14T05:28:57.680Z,8.53
2018-09-14T05:31:26.128Z,6.23
2018-09-14T05:33:54.585Z,8.63
2018-09-14T05:36:23.035Z,5.27
2018-09-14T05:38:51.457Z,8.77
2018-09-14T05:41:19.891Z,12.57
2018-09-14T05:43:48.338Z,9.37
2018-09-14T05:46:16.792Z,8.20
2018-09-14T05:48:45.267Z,9.17
2018-09-14T05:51:13.748Z,9.23
2018-09-14T05:53:42.201Z,9.80
2018-09-14T05:56:10.642Z,12.83
2018-09-14T05:58:39.102Z,11.63
2018-09-14T06:01:07.563Z,10.00
2018-09-14T06:03:36.015Z,8.20
2018-09-14T06:06:04.469Z,9.37
2018-09-14T06:08:33.584Z,11.57
2018-09-14T06:11:02.049Z,13.63
2018-09-14T06:13:30.469Z,9.57
2018-09-14T06:15:58.940Z,14.47
2018-09-14T06:18:27.457Z,16.17
2018-09-14T06:20:55.894Z,12.77
2018-09-14T06:23:24.376Z,14.03
2018-09-14T06:25:53.099Z,14.30
2018-09-14T06:28:21.685Z,10.53
2018-09-14T06:30:50.176Z,14.43
2018-09-14T06:33:19.069Z,16.17
2018-09-14T06:35:48.070Z,13.50
2018-09-14T06:38:16.523Z,9.00
2018-09-14T06:40:45.125Z,13.57
2018-09-14T06:43:13.725Z,13.77
2018-09-14T06:45:42.199Z,10.50
2018-09-14T06:48:10.656Z,10.60
2018-09-14T06:50:39.122Z,15.67
2018-09-14T06:53:07.635Z,12.80
2018-09-14T06:55:36.061Z,15.13
2018-09-14T06:58:04.489Z,14.33
2018-09-14T07:00:32.989Z,13.73
2018-09-14T07:03:01.404Z,14.70
2018-09-14T07:05:29.834Z,12.87
2018-09-14T07:07:58.289Z,11.50
2018-09-14T07:10:26.709Z,10.17
2018-09-14T07:12:55.369Z,8.63
2018-09-14T07:15:23.860Z,13.80
2018-09-14T07:17:52.289Z,13.73
2018-09-14T07:20:20.735Z,10.60
2018-09-14T07:22:49.149Z,11.97
2018-09-14T07:25:17.684Z,11.77
2018-09-14T07:27:46.161Z,12.60
2018-09-14T07:30:14.963Z,10.27
2018-09-14T07:32:43.420Z,9.70
2018-09-14T07:35:11.910Z,11.13
2018-09-14T07:37:40.353Z,7.70
2018-09-14T07:40:08.786Z,8.80
2018-09-14T07:42:37.645Z,7.77
2018-09-14T07:45:06.497Z,10.27
2018-09-14T07:47:34.940Z,12.60
2018-09-14T07:50:03.714Z,13.20
2018-09-14T07:52:32.143Z,6.77
2018-09-14T07:55:00.577Z,12.57
2018-09-14T07:57:29.288Z,9.70
2018-09-14T07:59:57.716Z,11.73
2018-09-14T08:02:26.145Z,12.77
2018-09-14T08:04:54.675Z,11.97
2018-09-14T08:07:23.116Z,12.43
2018-09-14T08:09:51.562Z,8.50
2018-09-14T08:12:20.017Z,12.60
2018-09-14T08:14:48.456Z,11.83
2018-09-14T08:17:16.905Z,10.43
2018-09-14T08:19:45.479Z,10.70
2018-09-14T08:22:13.893Z,9.67
2018-09-14T08:24:42.476Z,9.87
2018-09-14T08:27:10.929Z,11.30
2018-09-14T08:29:39.363Z,8.60
2018-09-14T08:32:07.818Z,8.07
2018-09-14T08:34:36.286Z,11.30
2018-09-14T08:37:04.762Z,9.43
2018-09-14T08:39:33.186Z,8.23
2018-09-14T08:42:01.650Z,11.03
2018-09-14T08:44:30.075Z,10.83
2018-09-14T08:46:58.562Z,11.53
2018-09-14T08:49:27.000Z,11.23
2018-09-14T08:51:55.472Z,10.10
2018-09-14T08:54:23.925Z,7.93
2018-09-14T08:56:52.356Z,8.90
2018-09-14T08:59:20.804Z,8.90
2018-09-14T09:01:49.254Z,8.73
2018-09-14T09:04:17.677Z,6.43
2018-09-14T09:06:46.131Z,10.77
2018-09-14T09:09:14.954Z,6.67
2018-09-14T09:11:43.410Z,8.67
2018-09-14T09:14:11.852Z,8.30
2018-09-14T09:16:40.555Z,10.57
2018-09-14T09:19:09.450Z,11.53
2018-09-14T09:21:38.060Z,11.50
2018-09-14T09:24:06.506Z,7.80
2018-09-14T09:26:34.990Z,9.00
2018-09-14T09:29:03.443Z,12.50
2018-09-14T09:31:31.908Z,10.20
2018-09-14T09:34:00.352Z,8.70
2018-09-14T09:36:28.820Z,9.00
2018-09-14T09:38:57.264Z,7.83
2018-09-14T09:41:25.734Z,7.00
2018-09-14T09:43:54.163Z,9.20
2018-09-14T09:46:22.633Z,8.57
2018-09-14T09:48:51.071Z,11.17
2018-09-14T09:51:19.729Z,8.13
2018-09-14T09:53:48.156Z,11.50
2018-09-14T09:56:16.594Z,9.30
2018-09-14T09:58:45.114Z,10.77
2018-09-14T10:01:19.006Z,9.00
2018-09-14T10:03:53.301Z,9.03
2018-09-14T10:06:26.758Z,11.70
2018-09-14T10:08:56.340Z,7.63
2018-09-14T10:11:25.418Z,8.57
2018-09-14T10:13:54.164Z,9.97
2018-09-14T10:16:22.618Z,9.37
2018-09-14T10:18:51.366Z,11.13
2018-09-14T10:21:19.919Z,9.60
2018-09-14T10:23:48.365Z,8.87
2018-09-14T10:26:16.792Z,9.47
2018-09-14T10:28:45.274Z,9.83
2018-09-14T10:31:13.709Z,11.80
2018-09-14T10:33:42.141Z,9.63
2018-09-14T10:36:10.593Z,11.07
2018-09-14T10:38:39.033Z,6.97
2018-09-14T10:41:07.531Z,10.40
2018-09-14T10:43:36.088Z,7.47
2018-09-14T10:46:04.990Z,8.63
2018-09-14T10:48:33.449Z,9.90
2018-09-14T10:51:01.877Z,10.00
2018-09-14T10:53:30.323Z,11.47
2018-09-14T10:55:58.805Z,12.10
2018-09-14T10:58:31.215Z,12.07
2018-09-14T11:00:59.634Z,15.03
2018-09-14T11:03:28.090Z,12.50
2018-09-14T11:05:56.540Z,15.23
2018-09-14T11:08:25.319Z,11.83
2018-09-14T11:10:53.725Z,12.00
2018-09-14T11:13:22.162Z,12.57
2018-09-14T11:15:50.601Z,15.70
2018-09-14T11:18:19.044Z,17.95
2018-09-14T11:20:47.496Z,11.40
2018-09-14T11:23:15.943Z,14.70
2018-09-14T11:25:44.404Z,11.67
2018-09-14T11:28:12.861Z,13.70
2018-09-14T11:30:41.295Z,10.90
2018-09-14T11:33:09.759Z,15.17
2018-09-14T11:35:38.184Z,12.67
2018-09-14T11:38:06.689Z,8.73
2018-09-14T11:40:35.109Z,11.90
2018-09-14T11:43:03.549Z,16.43
2018-09-14T11:45:31.973Z,13.43
2018-09-14T11:48:00.461Z,12.53
2018-09-14T11:50:28.893Z,15.53
2018-09-14T11:52:57.372Z,13.60
2018-09-14T11:55:25.800Z,14.43
2018-09-14T11:57:54.268Z,11.67
2018-09-14T12:00:22.701Z,16.40
2018-09-14T12:02:51.161Z,9.83
2018-09-14T12:05:19.604Z,14.87
2018-09-14T12:07:48.042Z,16.27
2018-09-14T12:10:16.502Z,13.90
2018-09-14T12:12:44.928Z,13.13
2018-09-14T12:15:13.386Z,15.10
2018-09-14T12:17:41.845Z,14.50
2018-09-14T12:20:10.345Z,11.27
2018-09-14T12:22:38.815Z,11.10
2018-09-14T12:25:07.323Z,11.53
2018-09-14T12:27:35.771Z,15.20
2018-09-14T12:30:04.580Z,13.73
2018-09-14T12:32:33.029Z,10.83
2018-09-14T12:35:01.477Z,12.97
2018-09-14T12:37:29.941Z,13.80
2018-09-14T12:39:58.661Z,11.23
2018-09-14T12:42:27.102Z,10.10
2018-09-14T12:44:55.525Z,9.93
2018-09-14T12:47:23.981Z,13.97
2018-09-14T12:49:52.410Z,14.93
2018-09-14T12:52:20.950Z,13.73
2018-09-14T12:54:49.389Z,14.17
2018-09-14T12:57:17.865Z,13.43
2018-09-14T12:59:46.308Z,11.53
2018-09-14T13:02:14.776Z,14.70
2018-09-14T13:04:43.234Z,13.73
2018-09-14T13:07:11.728Z,12.60
2018-09-14T13:09:40.170Z,11.77
2018-09-14T13:12:08.609Z,14.10
2018-09-14T13:14:37.115Z,11.90
2018-09-14T13:17:09.765Z,10.77
2018-09-14T13:19:38.193Z,13.10
2018-09-14T13:22:07.037Z,11.17
2018-09-14T13:24:35.457Z,7.90
2018-09-14T13:27:03.908Z,8.33
2018-09-14T13:29:32.385Z,12.10
2018-09-14T13:32:00.896Z,11.27
2018-09-14T13:34:29.329Z,8.80
2018-09-14T13:36:57.797Z,9.23
2018-09-14T13:39:26.247Z,6.93
2018-09-14T13:41:54.701Z,7.03
2018-09-14T13:44:23.137Z,5.73
2018-09-14T13:46:51.569Z,8.23
2018-09-14T13:49:20.001Z,8.73
2018-09-14T13:51:48.441Z,6.33
2018-09-14T13:54:16.876Z,8.63
2018-09-14T13:56:45.289Z,6.77
2018-09-14T13:59:13.729Z,5.00
2018-09-14T14:01:42.216Z,7.47
2018-09-14T14:04:10.629Z,6.93
2018-09-14T14:06:39.081Z,7.30
2018-09-14T14:09:10.107Z,6.10
2018-09-14T14:11:38.538Z,5.63
2018-09-14T14:14:07.527Z,5.80
2018-09-14T14:16:36.289Z,6.37
2018-09-14T14:19:05.123Z,6.97
2018-09-14T14:21:33.558Z,6.30
2018-09-14T14:24:02.038Z,6.77
2018-09-14T14:26:30.917Z,6.40
2018-09-14T14:28:59.369Z,5.07
2018-09-14T14:31:28.162Z,5.23
2018-09-14T14:33:56.598Z,7.97
2018-09-14T14:36:25.061Z,7.80
2018-09-14T14:38:53.627Z,7.53
2018-09-14T14:41:22.394Z,6.97
2018-09-14T14:43:50.856Z,5.70
2018-09-14T14:46:19.313Z,5.27
2018-09-14T14:48:47.763Z,8.87
2018-09-14T14:51:16.190Z,7.13
2018-09-14T14:53:44.649Z,6.30
2018-09-14T14:56:13.082Z,5.63
2018-09-14T14:58:41.539Z,8.13
2018-09-14T15:01:10.017Z,7.07
2018-09-14T15:03:38.446Z,6.60
2018-09-14T15:06:07.003Z,6.80
2018-09-14T15:08:35.461Z,6.07
2018-09-14T15:11:03.901Z,5.90
2018-09-14T15:13:32.400Z,6.30
2018-09-14T15:16:00.829Z,4.40
2018-09-14T15:18:29.312Z,3.03
2018-09-14T15:20:57.785Z,3.93
2018-09-14T15:23:26.237Z,5.60
2018-09-14T15:25:54.677Z,5.03
2018-09-14T15:28:23.105Z,4.37
2018-09-14T15:30:51.597Z,3.20
2018-09-14T15:33:20.094Z,4.83
2018-09-14T15:35:48.552Z,3.63
2018-09-14T15:38:16.997Z,4.97
2018-09-14T15:40:45.390Z,4.23
2018-09-14T15:43:13.837Z,3.13
2018-09-14T15:45:42.275Z,4.60
2018-09-14T15:48:10.726Z,3.70
2018-09-14T15:50:39.181Z,3.87
2018-09-14T15:53:07.676Z,3.47
2018-09-14T15:55:36.109Z,3.43
2018-09-14T15:58:04.580Z,3.27
2018-09-14T16:00:33.021Z,4.63
2018-09-14T16:03:01.467Z,7.10
2018-09-14T16:05:30.195Z,4.93
2018-09-14T16:07:58.653Z,3.27
2018-09-14T16:10:27.085Z,3.60
2018-09-14T16:12:55.529Z,3.40
2018-09-14T16:15:24.152Z,3.60
2018-09-14T16:17:52.598Z,3.30
2018-09-14T16:20:21.334Z,4.20
2018-09-14T16:22:49.798Z,4.40
2018-09-14T16:25:18.252Z,5.17
2018-09-14T16:27:46.685Z,4.53
2018-09-14T16:30:15.131Z,5.77
2018-09-14T16:32:43.613Z,5.53
2018-09-14T16:35:12.030Z,7.00
2018-09-14T16:37:40.464Z,5.20
2018-09-14T16:40:08.905Z,4.30
2018-09-14T16:42:37.406Z,5.07
2018-09-14T16:45:05.913Z,4.00
2018-09-14T16:47:34.494Z,4.73
2018-09-14T16:50:03.079Z,4.27
2018-09-14T16:52:31.534Z,5.47
2018-09-14T16:55:00.365Z,4.40
2018-09-14T16:57:29.326Z,4.70
2018-09-14T16:59:57.949Z,4.03
2018-09-14T17:02:26.516Z,6.10
2018-09-14T17:04:54.976Z,4.80
2018-09-14T17:07:23.414Z,5.73
2018-09-14T17:09:51.884Z,4.70
2018-09-14T17:12:20.327Z,5.30
2018-09-14T17:14:49.133Z,4.73
2018-09-14T17:17:17.897Z,5.37
2018-09-14T17:19:46.640Z,5.63
2018-09-14T17:22:15.076Z,5.30
2018-09-14T17:24:43.529Z,4.93
2018-09-14T17:27:11.951Z,6.17
2018-09-14T17:29:40.755Z,6.43
2018-09-14T17:32:09.182Z,5.97
2018-09-14T17:34:37.645Z,6.10
2018-09-14T17:37:06.070Z,6.97
2018-09-14T17:39:34.565Z,6.77
2018-09-14T17:42:03.010Z,5.10
2018-09-14T17:44:31.513Z,5.83
2018-09-14T17:46:59.922Z,6.20
2018-09-14T17:49:28.365Z,5.53
2018-09-14T17:51:56.839Z,6.97
2018-09-14T17:54:25.261Z,7.30
2018-09-14T17:56:53.727Z,8.30
2018-09-14T17:59:22.193Z,6.30
2018-09-14T18:01:50.652Z,7.33
2018-09-14T18:04:19.413Z,7.73
2018-09-14T18:06:47.855Z,6.00
2018-09-14T18:09:16.301Z,7.20
2018-09-14T18:11:44.729Z,7.60
2018-09-14T18:14:13.153Z,7.20
2018-09-14T18:16:41.589Z,8.13
2018-09-14T18:19:10.039Z,8.67
2018-09-14T18:21:38.483Z,7.17
2018-09-14T18:24:07.534Z,7.30
2018-09-14T18:26:35.976Z,7.90
2018-09-14T18:29:04.568Z,10.13
2018-09-14T18:31:33.003Z,10.63
2018-09-14T18:34:01.450Z,8.30
2018-09-14T18:36:29.904Z,10.70
2018-09-14T18:38:58.342Z,9.10
2018-09-14T18:41:26.824Z,11.43
2018-09-14T18:43:55.265Z,8.50
2018-09-14T18:46:23.752Z,10.40
2018-09-14T18:48:52.215Z,8.17
2018-09-14T18:51:20.925Z,8.33
2018-09-14T18:53:49.385Z,9.90
2018-09-14T18:56:17.839Z,9.70
2018-09-14T18:58:46.286Z,6.53
2018-09-14T19:01:14.738Z,9.37
2018-09-14T19:03:43.206Z,9.40
2018-09-14T19:06:11.633Z,10.73
2018-09-14T19:08:40.073Z,8.53
2018-09-14T19:11:08.548Z,8.37
2018-09-14T19:13:36.993Z,9.97
2018-09-14T19:16:05.453Z,8.00
2018-09-14T19:18:33.898Z,11.33
2018-09-14T19:21:02.350Z,10.10
2018-09-14T19:23:30.772Z,8.20
2018-09-14T19:25:59.809Z,10.57
2018-09-14T19:28:28.281Z,10.97
2018-09-14T19:30:57.017Z,9.73
2018-09-14T19:33:25.928Z,9.47
2018-09-14T19:35:54.726Z,10.73
2018-09-14T19:38:23.156Z,8.83
2018-09-14T19:40:51.625Z,9.63
2018-09-14T19:43:20.202Z,9.23
2018-09-14T19:45:48.773Z,8.80
2018-09-14T19:48:17.202Z,9.87
2018-09-14T19:50:45.933Z,10.03
2018-09-14T19:53:14.362Z,8.10
2018-09-14T19:55:42.825Z,11.13
2018-09-14T19:58:11.441Z,10.57
2018-09-14T20:00:39.876Z,10.70
2018-09-14T20:03:08.363Z,9.50
2018-09-14T20:05:36.806Z,9.70
2018-09-14T20:08:05.537Z,9.63
2018-09-14T20:10:33.974Z,8.30
2018-09-14T20:13:02.724Z,10.23
2018-09-14T20:15:31.165Z,10.47
2018-09-14T20:17:59.662Z,9.80
2018-09-14T20:20:28.377Z,10.80
2018-09-14T20:22:56.841Z,10.27
2018-09-14T20:25:25.277Z,10.90
2018-09-14T20:27:53.705Z,11.13
2018-09-14T20:30:22.179Z,8.70
2018-09-14T20:32:50.636Z,9.47
2018-09-14T20:35:19.382Z,8.17
2018-09-14T20:37:47.825Z,11.40
2018-09-14T20:40:16.533Z,8.27
2018-09-14T20:42:44.968Z,8.17
2018-09-14T20:45:13.454Z,8.93
2018-09-14T20:47:41.922Z,9.10
2018-09-14T20:50:10.376Z,10.17
2018-09-14T20:52:38.814Z,8.40
2018-09-14T20:55:07.270Z,9.93
2018-09-14T20:57:35.699Z,9.37
2018-09-14T21:00:04.268Z,8.03
2018-09-14T21:02:32.697Z,9.93
2018-09-14T21:05:01.165Z,10.13
2018-09-14T21:07:29.604Z,8.20
2018-09-14T21:09:58.041Z,10.67
2018-09-14T21:12:26.489Z,10.40
2018-09-14T21:14:54.997Z,10.20
2018-09-14T21:17:23.401Z,9.87
2018-09-14T21:19:51.834Z,9.97
2018-09-14T21:22:20.273Z,8.60
2018-09-14T21:24:48.726Z,12.00
2018-09-14T21:27:17.189Z,10.07
2018-09-14T21:29:45.626Z,8.93
2018-09-14T21:32:14.074Z,10.50
2018-09-14T21:34:42.550Z,11.10
2018-09-14T21:37:10.965Z,11.10
2018-09-14T21:39:39.447Z,9.77
2018-09-14T21:42:07.886Z,9.83
2018-09-14T21:44:36.341Z,10.97
2018-09-14T21:47:04.780Z,10.57
2018-09-14T21:49:33.541Z,8.30
2018-09-14T21:52:01.983Z,12.10
2018-09-14T21:54:30.756Z,9.57
2018-09-14T21:56:59.237Z,10.90
2018-09-14T21:59:27.679Z,8.43
2018-09-14T22:01:56.276Z,10.93
2018-09-14T22:04:24.702Z,9.47
2018-09-14T22:06:53.146Z,11.00
2018-09-14T22:09:21.592Z,8.87
2018-09-14T22:11:50.065Z,11.17
2018-09-14T22:14:18.533Z,7.77
2018-09-14T22:16:47.320Z,9.17
2018-09-14T22:19:15.805Z,11.27
2018-09-14T22:21:44.292Z,8.60
2018-09-14T22:24:12.709Z,10.70
2018-09-14T22:26:41.138Z,8.10
2018-09-14T22:29:09.936Z,9.70
2018-09-14T22:31:38.365Z,11.97
2018-09-14T22:34:06.822Z,10.80
2018-09-14T22:36:35.300Z,10.10
2018-09-14T22:39:04.364Z,9.20
2018-09-14T22:41:32.800Z,11.03
2018-09-14T22:44:01.577Z,8.60
2018-09-14T22:46:29.998Z,11.50
2018-09-14T22:48:58.421Z,10.83
2018-09-14T22:51:26.859Z,10.10
2018-09-14T22:53:55.318Z,10.13
2018-09-14T22:56:23.728Z,10.43
2018-09-14T22:58:52.185Z,10.73
2018-09-14T23:01:20.794Z,10.80
2018-09-14T23:03:50.316Z,11.07
2018-09-14T23:06:18.828Z,11.90
2018-09-14T23:08:47.311Z,10.13
2018-09-14T23:11:15.777Z,12.80
2018-09-14T23:13:44.232Z,12.17
2018-09-14T23:16:12.962Z,12.93
2018-09-14T23:18:41.429Z,12.13
2018-09-14T23:21:09.871Z,13.43
2018-09-14T23:23:38.312Z,9.80
2018-09-14T23:26:12.496Z,11.80
2018-09-14T23:28:40.920Z,11.67
2018-09-14T23:31:09.384Z,12.13
2018-09-14T23:33:37.844Z,12.43
2018-09-14T23:36:06.281Z,11.37
2018-09-14T23:38:35.615Z,12.03
2018-09-14T23:41:04.077Z,12.67
2018-09-14T23:43:32.832Z,11.87
2018-09-14T23:46:01.284Z,10.60
2018-09-14T23:48:29.705Z,12.13
2018-09-14T23:50:58.162Z,10.97
2018-09-14T23:53:26.610Z,10.23
2018-09-14T23:55:55.380Z,10.30
2018-09-14T23:58:23.845Z,11.13
